Alderpoint, California
Current Conditions -  °F | °C
As of 6:10 AM on Saturday 25 Oct 2014 (Local Time) from KFOT Reporting Station
Overcast Overcast  
Wind Chill: 15°   Ceiling: 3700
Heat Index: 15°   Visibility: 7mi
Dew Point: 12°   Wind: 17mph
Humidity: 82%   Direction: 150°SSE
Pressure: 29.65"   Gusts: 28mph
Location:  40.18°N, 123.61°W
Report Text: KFOT 251310Z AUTO 15015G24KT 7SM FEW004 BKN037 OVC070 15/12 A2965 RMK AO1 P0001
Loading
Personal Weather Stations






























Interactive Weather Map
Tropical Storm Tracking
New forecast layout! Learn more

10-Day Weather Forecast

Advertisements
Track Severe Weather on mobile